Terminal Aerodrome Forecast
Issued by NWS

Home | Current Version | Previous Version | Text Only | Print | Product List | Glossary On
Versions: 1 2 3 4 5 6 7 8 9 10 11 12 13
000
FTUS42 TJSJ 191100
TAFKPK
TAF
TKPK 191131Z 1912/2012 05009KT P6SM VCSH FEW018 SCT040
     FM191430 07008KT P6SM FEW020 SCT040
     FM192300 08008KT P6SM VCSH SCT019=

USA.gov is the U.S. government's official web portal to all federal, state and local government web resources and services.